sensor_id;sensor_type;location;lat;lon;timestamp;P1;durP1;ratioP1;P2;durP2;ratioP2
63807;SDS011;49961;43.970;22.868;2022-12-18T00:00:59;31.07;;;23.07;;
63807;SDS011;49961;43.970;22.868;2022-12-18T00:02:00;30.83;;;23.43;;
63807;SDS011;49961;43.970;22.868;2022-12-18T00:03:00;32.50;;;24.23;;
63807;SDS011;49961;43.970;22.868;2022-12-18T00:04:01;32.40;;;23.70;;
63807;SDS011;49961;43.970;22.868;2022-12-18T00:05:06;29.83;;;23.20;;
63807;SDS011;49961;43.970;22.868;2022-12-18T00:06:07;30.30;;;22.93;;
63807;SDS011;49961;43.970;22.868;2022-12-18T00:07:08;32.80;;;23.02;;
63807;SDS011;49961;43.970;22.868;2022-12-18T00:08:09;30.77;;;23.40;;
63807;SDS011;49961;43.970;22.868;2022-12-18T00:09:09;32.07;;;24.57;;
63807;SDS011;49961;43.970;22.868;2022-12-18T00:10:10;31.00;;;23.17;;
63807;SDS011;49961;43.970;22.868;2022-12-18T00:11:11;28.97;;;22.70;;
63807;SDS011;49961;43.970;22.868;2022-12-18T00:12:16;29.90;;;22.75;;
63807;SDS011;49961;43.970;22.868;2022-12-18T00:13:17;29.40;;;22.87;;
63807;SDS011;49961;43.970;22.868;2022-12-18T00:14:17;31.03;;;23.33;;
63807;SDS011;49961;43.970;22.868;2022-12-18T00:15:18;30.90;;;23.37;;
63807;SDS011;49961;43.970;22.868;2022-12-18T00:16:19;30.07;;;22.13;;
63807;SDS011;49961;43.970;22.868;2022-12-18T00:17:21;29.42;;;22.67;;
63807;SDS011;49961;43.970;22.868;2022-12-18T00:18:22;31.07;;;22.73;;
63807;SDS011;49961;43.970;22.868;2022-12-18T00:19:22;29.20;;;22.30;;
63807;SDS011;49961;43.970;22.868;2022-12-18T00:20:22;30.43;;;21.90;;
63807;SDS011;49961;43.970;22.868;2022-12-18T00:21:26;30.52;;;22.80;;
63807;SDS011;49961;43.970;22.868;2022-12-18T00:22:28;28.67;;;21.05;;
63807;SDS011;49961;43.970;22.868;2022-12-18T00:23:29;30.00;;;22.43;;
63807;SDS011;49961;43.970;22.868;2022-12-18T00:24:30;29.35;;;22.25;;
63807;SDS011;49961;43.970;22.868;2022-12-18T00:25:32;29.27;;;22.20;;
63807;SDS011;49961;43.970;22.868;2022-12-18T00:26:34;29.30;;;22.60;;
63807;SDS011;49961;43.970;22.868;2022-12-18T00:27:37;29.60;;;22.05;;
63807;SDS011;49961;43.970;22.868;2022-12-18T00:28:37;29.40;;;21.77;;
63807;SDS011;49961;43.970;22.868;2022-12-18T00:29:41;31.43;;;23.47;;
63807;SDS011;49961;43.970;22.868;2022-12-18T00:30:41;30.98;;;23.60;;
63807;SDS011;49961;43.970;22.868;2022-12-18T00:31:42;29.17;;;22.67;;
63807;SDS011;49961;43.970;22.868;2022-12-18T00:32:42;30.50;;;22.80;;
63807;SDS011;49961;43.970;22.868;2022-12-18T00:33:43;29.33;;;22.20;;
63807;SDS011;49961;43.970;22.868;2022-12-18T00:34:43;31.20;;;23.97;;
63807;SDS011;49961;43.970;22.868;2022-12-18T00:35:44;30.97;;;22.07;;
63807;SDS011;49961;43.970;22.868;2022-12-18T00:36:46;31.23;;;22.57;;
63807;SDS011;49961;43.970;22.868;2022-12-18T00:37:48;29.73;;;22.83;;
63807;SDS011;49961;43.970;22.868;2022-12-18T00:38:48;30.40;;;23.27;;
63807;SDS011;49961;43.970;22.868;2022-12-18T00:39:49;31.57;;;23.60;;
63807;SDS011;49961;43.970;22.868;2022-12-18T00:40:49;32.70;;;23.97;;
63807;SDS011;49961;43.970;22.868;2022-12-18T00:41:50;30.97;;;23.73;;
63807;SDS011;49961;43.970;22.868;2022-12-18T00:43:09;32.95;;;24.02;;
63807;SDS011;49961;43.970;22.868;2022-12-18T00:44:10;31.23;;;23.13;;
63807;SDS011;49961;43.970;22.868;2022-12-18T00:45:12;31.80;;;23.90;;
63807;SDS011;49961;43.970;22.868;2022-12-18T00:46:13;32.27;;;23.87;;
63807;SDS011;49961;43.970;22.868;2022-12-18T00:47:13;36.90;;;25.20;;
63807;SDS011;49961;43.970;22.868;2022-12-18T00:48:14;32.27;;;23.50;;
63807;SDS011;49961;43.970;22.868;2022-12-18T00:49:15;32.23;;;23.90;;
63807;SDS011;49961;43.970;22.868;2022-12-18T00:50:18;32.30;;;23.88;;
63807;SDS011;49961;43.970;22.868;2022-12-18T00:51:18;34.17;;;24.60;;
63807;SDS011;49961;43.970;22.868;2022-12-18T00:52:19;31.13;;;23.97;;
63807;SDS011;49961;43.970;22.868;2022-12-18T00:53:19;32.50;;;23.73;;
63807;SDS011;49961;43.970;22.868;2022-12-18T00:54:20;33.10;;;25.07;;
63807;SDS011;49961;43.970;22.868;2022-12-18T00:55:20;33.33;;;24.10;;
63807;SDS011;49961;43.970;22.868;2022-12-18T00:56:21;31.50;;;23.80;;
63807;SDS011;49961;43.970;22.868;2022-12-18T00:57:21;31.40;;;23.43;;
63807;SDS011;49961;43.970;22.868;2022-12-18T00:58:22;31.23;;;23.67;;
63807;SDS011;49961;43.970;22.868;2022-12-18T00:59:22;31.30;;;23.40;;
63807;SDS011;49961;43.970;22.868;2022-12-18T01:00:23;32.77;;;23.57;;
63807;SDS011;49961;43.970;22.868;2022-12-18T01:01:23;31.77;;;22.70;;
63807;SDS011;49961;43.970;22.868;2022-12-18T01:02:24;31.83;;;24.23;;
63807;SDS011;49961;43.970;22.868;2022-12-18T01:03:24;31.83;;;24.30;;
63807;SDS011;49961;43.970;22.868;2022-12-18T01:04:24;35.00;;;23.67;;
63807;SDS011;49961;43.970;22.868;2022-12-18T01:05:25;34.53;;;24.03;;
63807;SDS011;49961;43.970;22.868;2022-12-18T01:06:26;31.52;;;23.88;;
63807;SDS011;49961;43.970;22.868;2022-12-18T01:07:26;33.80;;;24.77;;
63807;SDS011;49961;43.970;22.868;2022-12-18T01:08:27;33.23;;;23.77;;
63807;SDS011;49961;43.970;22.868;2022-12-18T01:09:27;36.23;;;26.07;;
63807;SDS011;49961;43.970;22.868;2022-12-18T01:10:28;34.47;;;24.57;;
63807;SDS011;49961;43.970;22.868;2022-12-18T01:11:29;32.67;;;24.27;;
63807;SDS011;49961;43.970;22.868;2022-12-18T01:12:29;32.37;;;24.83;;
63807;SDS011;49961;43.970;22.868;2022-12-18T01:13:30;34.10;;;24.87;;
63807;SDS011;49961;43.970;22.868;2022-12-18T01:14:30;32.17;;;24.37;;
63807;SDS011;49961;43.970;22.868;2022-12-18T01:15:31;35.33;;;25.03;;
63807;SDS011;49961;43.970;22.868;2022-12-18T01:16:31;34.23;;;24.83;;
63807;SDS011;49961;43.970;22.868;2022-12-18T01:17:32;31.83;;;24.13;;
63807;SDS011;49961;43.970;22.868;2022-12-18T01:18:33;33.33;;;24.73;;
63807;SDS011;49961;43.970;22.868;2022-12-18T01:19:33;32.43;;;25.17;;
63807;SDS011;49961;43.970;22.868;2022-12-18T01:20:34;31.83;;;24.17;;
63807;SDS011;49961;43.970;22.868;2022-12-18T01:21:34;34.07;;;24.33;;
63807;SDS011;49961;43.970;22.868;2022-12-18T01:22:35;30.37;;;23.23;;
63807;SDS011;49961;43.970;22.868;2022-12-18T01:23:36;31.20;;;22.85;;
63807;SDS011;49961;43.970;22.868;2022-12-18T01:24:37;33.17;;;24.63;;
63807;SDS011;49961;43.970;22.868;2022-12-18T01:25:38;31.47;;;24.20;;
63807;SDS011;49961;43.970;22.868;2022-12-18T01:26:38;32.73;;;24.83;;
63807;SDS011;49961;43.970;22.868;2022-12-18T01:27:39;30.90;;;22.83;;
63807;SDS011;49961;43.970;22.868;2022-12-18T01:28:39;29.30;;;23.07;;
63807;SDS011;49961;43.970;22.868;2022-12-18T01:29:40;32.23;;;24.13;;
63807;SDS011;49961;43.970;22.868;2022-12-18T01:30:40;34.60;;;25.77;;
63807;SDS011;49961;43.970;22.868;2022-12-18T01:31:41;30.30;;;23.93;;
63807;SDS011;49961;43.970;22.868;2022-12-18T01:32:41;31.07;;;23.80;;
63807;SDS011;49961;43.970;22.868;2022-12-18T01:33:42;31.83;;;23.57;;
63807;SDS011;49961;43.970;22.868;2022-12-18T01:34:43;32.03;;;24.35;;
63807;SDS011;49961;43.970;22.868;2022-12-18T01:35:43;29.83;;;22.87;;
63807;SDS011;49961;43.970;22.868;2022-12-18T01:36:44;30.20;;;23.23;;
63807;SDS011;49961;43.970;22.868;2022-12-18T01:37:44;29.70;;;22.93;;
63807;SDS011;49961;43.970;22.868;2022-12-18T01:38:45;30.17;;;22.83;;
63807;SDS011;49961;43.970;22.868;2022-12-18T01:39:45;29.35;;;22.73;;
63807;SDS011;49961;43.970;22.868;2022-12-18T01:40:46;28.97;;;22.70;;
63807;SDS011;49961;43.970;22.868;2022-12-18T01:41:46;32.40;;;22.50;;
63807;SDS011;49961;43.970;22.868;2022-12-18T01:43:02;27.95;;;21.98;;
63807;SDS011;49961;43.970;22.868;2022-12-18T01:44:46;27.37;;;21.57;;
63807;SDS011;49961;43.970;22.868;2022-12-18T01:45:41;26.17;;;19.40;;
63807;SDS011;49961;43.970;22.868;2022-12-18T01:46:42;27.93;;;21.13;;
63807;SDS011;49961;43.970;22.868;2022-12-18T01:47:49;25.77;;;19.93;;
63807;SDS011;49961;43.970;22.868;2022-12-18T01:48:54;28.48;;;20.73;;
63807;SDS011;49961;43.970;22.868;2022-12-18T01:49:58;27.95;;;21.05;;
63807;SDS011;49961;43.970;22.868;2022-12-18T01:51:01;26.80;;;20.35;;
63807;SDS011;49961;43.970;22.868;2022-12-18T01:52:02;27.60;;;21.10;;
63807;SDS011;49961;43.970;22.868;2022-12-18T01:53:07;26.03;;;20.87;;
63807;SDS011;49961;43.970;22.868;2022-12-18T01:54:11;28.05;;;21.88;;
63807;SDS011;49961;43.970;22.868;2022-12-18T01:55:12;27.67;;;20.87;;
63807;SDS011;49961;43.970;22.868;2022-12-18T01:56:16;27.92;;;22.33;;
63807;SDS011;49961;43.970;22.868;2022-12-18T01:57:19;28.42;;;21.98;;
63807;SDS011;49961;43.970;22.868;2022-12-18T01:58:21;29.20;;;22.70;;
63807;SDS011;49961;43.970;22.868;2022-12-18T01:59:28;28.35;;;21.77;;
63807;SDS011;49961;43.970;22.868;2022-12-18T02:00:31;27.83;;;22.08;;
63807;SDS011;49961;43.970;22.868;2022-12-18T02:01:33;30.75;;;22.75;;
63807;SDS011;49961;43.970;22.868;2022-12-18T02:02:35;27.70;;;22.02;;
63807;SDS011;49961;43.970;22.868;2022-12-18T02:03:35;28.77;;;22.40;;
63807;SDS011;49961;43.970;22.868;2022-12-18T02:04:36;28.80;;;22.50;;
63807;SDS011;49961;43.970;22.868;2022-12-18T02:06:55;30.02;;;22.80;;
63807;SDS011;49961;43.970;22.868;2022-12-18T02:08:08;30.65;;;22.92;;
63807;SDS011;49961;43.970;22.868;2022-12-18T02:09:21;30.77;;;22.40;;
63807;SDS011;49961;43.970;22.868;2022-12-18T02:12:11;31.88;;;23.08;;
63807;SDS011;49961;43.970;22.868;2022-12-18T02:14:30;28.95;;;21.58;;
63807;SDS011;49961;43.970;22.868;2022-12-18T02:18:14;29.08;;;21.83;;
63807;SDS011;49961;43.970;22.868;2022-12-18T02:20:49;29.02;;;21.23;;
63807;SDS011;49961;43.970;22.868;2022-12-18T02:22:39;29.25;;;22.88;;
63807;SDS011;49961;43.970;22.868;2022-12-18T02:23:35;26.90;;;21.38;;
63807;SDS011;49961;43.970;22.868;2022-12-18T02:27:28;27.85;;;21.65;;
63807;SDS011;49961;43.970;22.868;2022-12-18T02:28:32;27.38;;;21.65;;
63807;SDS011;49961;43.970;22.868;2022-12-18T02:29:50;29.13;;;21.63;;
63807;SDS011;49961;43.970;22.868;2022-12-18T02:30:51;29.67;;;21.65;;
63807;SDS011;49961;43.970;22.868;2022-12-18T02:31:57;25.92;;;20.77;;
63807;SDS011;49961;43.970;22.868;2022-12-18T02:33:03;25.55;;;20.23;;
63807;SDS011;49961;43.970;22.868;2022-12-18T02:34:06;27.80;;;21.35;;
63807;SDS011;49961;43.970;22.868;2022-12-18T02:35:11;25.85;;;21.65;;
63807;SDS011;49961;43.970;22.868;2022-12-18T02:36:14;28.45;;;21.42;;
63807;SDS011;49961;43.970;22.868;2022-12-18T02:37:18;29.25;;;21.67;;
63807;SDS011;49961;43.970;22.868;2022-12-18T02:38:20;28.05;;;21.15;;
63807;SDS011;49961;43.970;22.868;2022-12-18T02:39:22;29.88;;;22.83;;
63807;SDS011;49961;43.970;22.868;2022-12-18T02:40:26;30.27;;;22.13;;
63807;SDS011;49961;43.970;22.868;2022-12-18T02:41:28;26.48;;;20.70;;
63807;SDS011;49961;43.970;22.868;2022-12-18T02:42:31;26.63;;;21.23;;
63807;SDS011;49961;43.970;22.868;2022-12-18T02:43:32;31.77;;;22.80;;
63807;SDS011;49961;43.970;22.868;2022-12-18T02:44:42;27.80;;;21.53;;
63807;SDS011;49961;43.970;22.868;2022-12-18T02:45:50;28.75;;;21.48;;
63807;SDS011;49961;43.970;22.868;2022-12-18T02:46:53;30.00;;;22.85;;
63807;SDS011;49961;43.970;22.868;2022-12-18T02:47:54;29.27;;;22.38;;
63807;SDS011;49961;43.970;22.868;2022-12-18T02:48:55;27.73;;;22.20;;
63807;SDS011;49961;43.970;22.868;2022-12-18T02:51:23;28.45;;;22.17;;
63807;SDS011;49961;43.970;22.868;2022-12-18T02:54:05;30.67;;;22.50;;
63807;SDS011;49961;43.970;22.868;2022-12-18T02:56:42;30.50;;;22.23;;
63807;SDS011;49961;43.970;22.868;2022-12-18T02:57:53;29.42;;;22.83;;
63807;SDS011;49961;43.970;22.868;2022-12-18T03:02:44;29.13;;;22.27;;
63807;SDS011;49961;43.970;22.868;2022-12-18T03:03:59;29.48;;;21.75;;
63807;SDS011;49961;43.970;22.868;2022-12-18T03:05:15;28.60;;;22.10;;
63807;SDS011;49961;43.970;22.868;2022-12-18T03:06:39;29.85;;;22.98;;
63807;SDS011;49961;43.970;22.868;2022-12-18T03:08:06;28.90;;;21.95;;
63807;SDS011;49961;43.970;22.868;2022-12-18T03:09:36;30.23;;;22.25;;
63807;SDS011;49961;43.970;22.868;2022-12-18T03:10:49;28.50;;;21.95;;
63807;SDS011;49961;43.970;22.868;2022-12-18T03:11:56;28.70;;;21.70;;
63807;SDS011;49961;43.970;22.868;2022-12-18T03:13:43;29.25;;;21.50;;
63807;SDS011;49961;43.970;22.868;2022-12-18T03:14:44;30.42;;;22.38;;
63807;SDS011;49961;43.970;22.868;2022-12-18T03:15:48;28.98;;;22.05;;
63807;SDS011;49961;43.970;22.868;2022-12-18T03:16:53;28.70;;;22.38;;
63807;SDS011;49961;43.970;22.868;2022-12-18T03:17:59;30.40;;;22.80;;
63807;SDS011;49961;43.970;22.868;2022-12-18T03:19:06;28.02;;;22.27;;
63807;SDS011;49961;43.970;22.868;2022-12-18T03:20:15;28.73;;;21.38;;
63807;SDS011;49961;43.970;22.868;2022-12-18T03:21:20;30.73;;;22.92;;
63807;SDS011;49961;43.970;22.868;2022-12-18T03:22:27;28.63;;;22.05;;
63807;SDS011;49961;43.970;22.868;2022-12-18T03:23:33;29.25;;;22.15;;
63807;SDS011;49961;43.970;22.868;2022-12-18T03:24:39;30.58;;;21.77;;
63807;SDS011;49961;43.970;22.868;2022-12-18T03:25:40;29.63;;;22.03;;
63807;SDS011;49961;43.970;22.868;2022-12-18T03:26:44;28.73;;;21.80;;
63807;SDS011;49961;43.970;22.868;2022-12-18T03:27:49;28.73;;;22.33;;
63807;SDS011;49961;43.970;22.868;2022-12-18T03:28:56;30.52;;;22.90;;
63807;SDS011;49961;43.970;22.868;2022-12-18T03:30:08;27.27;;;20.90;;
63807;SDS011;49961;43.970;22.868;2022-12-18T03:31:12;30.60;;;22.15;;
63807;SDS011;49961;43.970;22.868;2022-12-18T03:32:15;28.98;;;21.08;;
63807;SDS011;49961;43.970;22.868;2022-12-18T03:34:55;29.42;;;21.15;;
63807;SDS011;49961;43.970;22.868;2022-12-18T03:36:01;28.40;;;20.90;;
63807;SDS011;49961;43.970;22.868;2022-12-18T03:37:02;28.97;;;21.40;;
63807;SDS011;49961;43.970;22.868;2022-12-18T03:38:02;27.53;;;20.90;;
63807;SDS011;49961;43.970;22.868;2022-12-18T03:39:03;28.50;;;21.27;;
63807;SDS011;49961;43.970;22.868;2022-12-18T03:40:04;29.40;;;21.43;;
63807;SDS011;49961;43.970;22.868;2022-12-18T03:42:43;27.08;;;19.73;;
63807;SDS011;49961;43.970;22.868;2022-12-18T03:43:51;28.50;;;20.40;;
63807;SDS011;49961;43.970;22.868;2022-12-18T03:45:07;28.35;;;20.70;;
63807;SDS011;49961;43.970;22.868;2022-12-18T03:46:13;26.73;;;20.08;;
63807;SDS011;49961;43.970;22.868;2022-12-18T03:47:24;27.20;;;20.33;;
63807;SDS011;49961;43.970;22.868;2022-12-18T03:48:32;26.60;;;20.50;;
63807;SDS011;49961;43.970;22.868;2022-12-18T03:51:24;26.90;;;19.95;;
63807;SDS011;49961;43.970;22.868;2022-12-18T03:52:38;28.98;;;20.85;;
63807;SDS011;49961;43.970;22.868;2022-12-18T03:53:49;27.30;;;20.65;;
63807;SDS011;49961;43.970;22.868;2022-12-18T03:54:56;29.42;;;21.33;;
63807;SDS011;49961;43.970;22.868;2022-12-18T03:56:00;26.42;;;20.10;;
63807;SDS011;49961;43.970;22.868;2022-12-18T03:57:06;26.67;;;20.25;;
63807;SDS011;49961;43.970;22.868;2022-12-18T03:58:12;28.25;;;19.92;;
63807;SDS011;49961;43.970;22.868;2022-12-18T03:59:16;30.13;;;21.52;;
63807;SDS011;49961;43.970;22.868;2022-12-18T04:00:18;26.77;;;19.95;;
63807;SDS011;49961;43.970;22.868;2022-12-18T04:01:20;26.98;;;20.75;;
63807;SDS011;49961;43.970;22.868;2022-12-18T04:02:25;28.67;;;20.90;;
63807;SDS011;49961;43.970;22.868;2022-12-18T04:03:26;29.90;;;21.53;;
63807;SDS011;49961;43.970;22.868;2022-12-18T04:04:29;28.25;;;21.65;;
63807;SDS011;49961;43.970;22.868;2022-12-18T04:05:31;29.35;;;21.50;;
63807;SDS011;49961;43.970;22.868;2022-12-18T04:06:35;28.20;;;20.45;;
63807;SDS011;49961;43.970;22.868;2022-12-18T04:07:36;28.40;;;20.52;;
63807;SDS011;49961;43.970;22.868;2022-12-18T04:08:38;27.13;;;21.05;;
63807;SDS011;49961;43.970;22.868;2022-12-18T04:09:39;28.20;;;20.80;;
63807;SDS011;49961;43.970;22.868;2022-12-18T04:10:42;29.08;;;20.95;;
63807;SDS011;49961;43.970;22.868;2022-12-18T04:11:43;28.50;;;21.00;;
63807;SDS011;49961;43.970;22.868;2022-12-18T04:12:44;32.97;;;22.13;;
63807;SDS011;49961;43.970;22.868;2022-12-18T04:13:44;27.60;;;19.03;;
63807;SDS011;49961;43.970;22.868;2022-12-18T04:14:45;26.37;;;20.73;;
63807;SDS011;49961;43.970;22.868;2022-12-18T04:15:45;26.43;;;20.30;;
63807;SDS011;49961;43.970;22.868;2022-12-18T04:16:46;26.10;;;19.87;;
63807;SDS011;49961;43.970;22.868;2022-12-18T04:17:48;27.10;;;19.50;;
63807;SDS011;49961;43.970;22.868;2022-12-18T04:18:49;27.52;;;21.02;;
63807;SDS011;49961;43.970;22.868;2022-12-18T04:19:49;24.63;;;18.57;;
63807;SDS011;49961;43.970;22.868;2022-12-18T04:20:50;27.93;;;19.70;;
63807;SDS011;49961;43.970;22.868;2022-12-18T04:21:51;26.33;;;20.17;;
63807;SDS011;49961;43.970;22.868;2022-12-18T04:22:51;30.00;;;18.50;;
63807;SDS011;49961;43.970;22.868;2022-12-18T04:23:51;25.87;;;19.40;;
63807;SDS011;49961;43.970;22.868;2022-12-18T04:24:52;26.67;;;19.33;;
63807;SDS011;49961;43.970;22.868;2022-12-18T04:25:52;26.10;;;19.87;;
63807;SDS011;49961;43.970;22.868;2022-12-18T04:26:53;28.60;;;19.57;;
63807;SDS011;49961;43.970;22.868;2022-12-18T04:27:54;27.55;;;19.40;;
63807;SDS011;49961;43.970;22.868;2022-12-18T04:28:54;26.60;;;19.03;;
63807;SDS011;49961;43.970;22.868;2022-12-18T04:29:55;27.40;;;19.47;;
63807;SDS011;49961;43.970;22.868;2022-12-18T04:30:55;27.37;;;19.63;;
63807;SDS011;49961;43.970;22.868;2022-12-18T04:31:58;26.77;;;18.98;;
63807;SDS011;49961;43.970;22.868;2022-12-18T04:32:59;25.93;;;18.47;;
63807;SDS011;49961;43.970;22.868;2022-12-18T04:33:59;28.73;;;20.07;;
63807;SDS011;49961;43.970;22.868;2022-12-18T04:35:00;27.37;;;19.27;;
63807;SDS011;49961;43.970;22.868;2022-12-18T04:36:00;27.93;;;20.47;;
63807;SDS011;49961;43.970;22.868;2022-12-18T04:37:01;27.20;;;19.97;;
63807;SDS011;49961;43.970;22.868;2022-12-18T04:38:01;29.77;;;19.77;;
63807;SDS011;49961;43.970;22.868;2022-12-18T04:39:02;26.07;;;19.20;;
63807;SDS011;49961;43.970;22.868;2022-12-18T04:40:02;27.63;;;19.63;;
63807;SDS011;49961;43.970;22.868;2022-12-18T04:41:03;27.93;;;20.20;;
63807;SDS011;49961;43.970;22.868;2022-12-18T04:42:03;25.00;;;18.70;;
63807;SDS011;49961;43.970;22.868;2022-12-18T04:43:04;28.97;;;19.93;;
63807;SDS011;49961;43.970;22.868;2022-12-18T04:44:04;27.80;;;18.37;;
63807;SDS011;49961;43.970;22.868;2022-12-18T04:45:05;24.93;;;18.63;;
63807;SDS011;49961;43.970;22.868;2022-12-18T04:46:07;27.70;;;19.70;;
63807;SDS011;49961;43.970;22.868;2022-12-18T04:47:08;28.77;;;19.95;;
63807;SDS011;49961;43.970;22.868;2022-12-18T04:48:09;26.87;;;19.50;;
63807;SDS011;49961;43.970;22.868;2022-12-18T04:49:09;28.90;;;20.20;;
63807;SDS011;49961;43.970;22.868;2022-12-18T04:50:10;28.42;;;20.77;;
63807;SDS011;49961;43.970;22.868;2022-12-18T04:51:11;28.57;;;19.77;;
63807;SDS011;49961;43.970;22.868;2022-12-18T04:52:11;28.70;;;20.50;;
63807;SDS011;49961;43.970;22.868;2022-12-18T04:53:12;27.30;;;20.27;;
63807;SDS011;49961;43.970;22.868;2022-12-18T04:54:12;27.70;;;19.73;;
63807;SDS011;49961;43.970;22.868;2022-12-18T04:55:13;27.10;;;19.77;;
63807;SDS011;49961;43.970;22.868;2022-12-18T04:56:14;29.43;;;21.80;;
63807;SDS011;49961;43.970;22.868;2022-12-18T04:57:15;29.70;;;20.63;;
63807;SDS011;49961;43.970;22.868;2022-12-18T04:58:16;26.17;;;19.40;;
63807;SDS011;49961;43.970;22.868;2022-12-18T04:59:16;31.10;;;21.03;;
63807;SDS011;49961;43.970;22.868;2022-12-18T05:00:17;29.30;;;20.90;;
63807;SDS011;49961;43.970;22.868;2022-12-18T05:01:17;28.33;;;20.63;;
63807;SDS011;49961;43.970;22.868;2022-12-18T05:02:18;29.03;;;20.63;;
63807;SDS011;49961;43.970;22.868;2022-12-18T05:03:18;28.73;;;20.40;;
63807;SDS011;49961;43.970;22.868;2022-12-18T05:04:19;27.40;;;20.07;;
63807;SDS011;49961;43.970;22.868;2022-12-18T05:05:19;28.10;;;19.93;;
63807;SDS011;49961;43.970;22.868;2022-12-18T05:06:20;27.90;;;20.87;;
63807;SDS011;49961;43.970;22.868;2022-12-18T05:07:20;28.60;;;20.43;;
63807;SDS011;49961;43.970;22.868;2022-12-18T05:08:21;29.63;;;20.97;;
63807;SDS011;49961;43.970;22.868;2022-12-18T05:09:21;29.77;;;20.27;;
63807;SDS011;49961;43.970;22.868;2022-12-18T05:10:22;30.10;;;20.80;;
63807;SDS011;49961;43.970;22.868;2022-12-18T05:11:23;27.33;;;19.40;;
63807;SDS011;49961;43.970;22.868;2022-12-18T05:12:23;27.47;;;20.17;;
63807;SDS011;49961;43.970;22.868;2022-12-18T05:13:24;27.40;;;19.00;;
63807;SDS011;49961;43.970;22.868;2022-12-18T05:14:24;26.70;;;19.33;;
63807;SDS011;49961;43.970;22.868;2022-12-18T05:15:29;27.57;;;20.30;;
63807;SDS011;49961;43.970;22.868;2022-12-18T05:16:30;26.55;;;19.15;;
63807;SDS011;49961;43.970;22.868;2022-12-18T05:17:30;26.80;;;19.60;;
63807;SDS011;49961;43.970;22.868;2022-12-18T05:18:31;27.10;;;19.40;;
63807;SDS011;49961;43.970;22.868;2022-12-18T05:19:31;27.20;;;19.73;;
63807;SDS011;49961;43.970;22.868;2022-12-18T05:20:31;26.37;;;19.07;;
63807;SDS011;49961;43.970;22.868;2022-12-18T05:21:32;28.40;;;20.40;;
63807;SDS011;49961;43.970;22.868;2022-12-18T05:22:32;30.10;;;20.37;;
63807;SDS011;49961;43.970;22.868;2022-12-18T05:23:36;28.20;;;20.00;;
63807;SDS011;49961;43.970;22.868;2022-12-18T05:24:36;25.80;;;19.15;;
63807;SDS011;49961;43.970;22.868;2022-12-18T05:25:37;30.70;;;20.27;;
63807;SDS011;49961;43.970;22.868;2022-12-18T05:26:37;28.40;;;19.50;;
63807;SDS011;49961;43.970;22.868;2022-12-18T05:27:38;27.40;;;20.00;;
63807;SDS011;49961;43.970;22.868;2022-12-18T05:28:38;26.23;;;18.93;;
63807;SDS011;49961;43.970;22.868;2022-12-18T05:29:38;26.30;;;19.30;;
63807;SDS011;49961;43.970;22.868;2022-12-18T05:30:47;25.83;;;19.10;;
63807;SDS011;49961;43.970;22.868;2022-12-18T05:31:51;30.70;;;19.88;;
63807;SDS011;49961;43.970;22.868;2022-12-18T05:32:52;27.23;;;19.53;;
63807;SDS011;49961;43.970;22.868;2022-12-18T05:33:52;29.10;;;19.80;;
63807;SDS011;49961;43.970;22.868;2022-12-18T05:34:52;28.47;;;19.80;;
63807;SDS011;49961;43.970;22.868;2022-12-18T05:35:54;26.57;;;19.60;;
63807;SDS011;49961;43.970;22.868;2022-12-18T05:36:55;28.38;;;19.67;;
63807;SDS011;49961;43.970;22.868;2022-12-18T05:37:56;29.00;;;20.13;;
63807;SDS011;49961;43.970;22.868;2022-12-18T05:38:56;26.93;;;20.23;;
63807;SDS011;49961;43.970;22.868;2022-12-18T05:39:57;27.60;;;19.73;;
63807;SDS011;49961;43.970;22.868;2022-12-18T05:40:57;27.23;;;19.93;;
63807;SDS011;49961;43.970;22.868;2022-12-18T05:41:58;28.23;;;20.47;;
63807;SDS011;49961;43.970;22.868;2022-12-18T05:42:58;28.50;;;20.10;;
63807;SDS011;49961;43.970;22.868;2022-12-18T05:43:58;28.83;;;20.40;;
63807;SDS011;49961;43.970;22.868;2022-12-18T05:44:59;28.93;;;21.33;;
63807;SDS011;49961;43.970;22.868;2022-12-18T05:46:03;28.27;;;20.37;;
63807;SDS011;49961;43.970;22.868;2022-12-18T05:47:04;26.52;;;20.08;;
63807;SDS011;49961;43.970;22.868;2022-12-18T05:48:05;27.57;;;21.07;;
63807;SDS011;49961;43.970;22.868;2022-12-18T05:49:06;27.90;;;21.27;;
63807;SDS011;49961;43.970;22.868;2022-12-18T05:50:06;32.00;;;21.10;;
63807;SDS011;49961;43.970;22.868;2022-12-18T05:51:10;30.30;;;21.05;;
63807;SDS011;49961;43.970;22.868;2022-12-18T05:52:12;30.88;;;21.38;;
63807;SDS011;49961;43.970;22.868;2022-12-18T05:53:16;29.57;;;20.73;;
63807;SDS011;49961;43.970;22.868;2022-12-18T05:54:19;30.75;;;22.33;;
63807;SDS011;49961;43.970;22.868;2022-12-18T05:55:19;28.67;;;19.80;;
63807;SDS011;49961;43.970;22.868;2022-12-18T05:56:20;29.27;;;21.50;;
63807;SDS011;49961;43.970;22.868;2022-12-18T05:57:22;29.42;;;20.30;;
63807;SDS011;49961;43.970;22.868;2022-12-18T05:58:22;28.93;;;20.47;;
63807;SDS011;49961;43.970;22.868;2022-12-18T05:59:23;28.07;;;19.37;;
63807;SDS011;49961;43.970;22.868;2022-12-18T06:00:23;27.53;;;20.23;;
63807;SDS011;49961;43.970;22.868;2022-12-18T06:01:25;30.00;;;20.43;;
63807;SDS011;49961;43.970;22.868;2022-12-18T06:02:26;27.40;;;20.17;;
63807;SDS011;49961;43.970;22.868;2022-12-18T06:03:26;31.07;;;21.73;;
63807;SDS011;49961;43.970;22.868;2022-12-18T06:04:27;31.10;;;21.43;;
63807;SDS011;49961;43.970;22.868;2022-12-18T06:05:35;29.67;;;21.15;;
63807;SDS011;49961;43.970;22.868;2022-12-18T06:06:37;30.55;;;20.67;;
63807;SDS011;49961;43.970;22.868;2022-12-18T06:07:37;30.43;;;20.70;;
63807;SDS011;49961;43.970;22.868;2022-12-18T06:08:38;29.93;;;21.03;;
63807;SDS011;49961;43.970;22.868;2022-12-18T06:09:38;27.23;;;20.73;;
63807;SDS011;49961;43.970;22.868;2022-12-18T06:10:39;29.37;;;21.10;;
63807;SDS011;49961;43.970;22.868;2022-12-18T06:11:40;31.52;;;21.63;;
63807;SDS011;49961;43.970;22.868;2022-12-18T06:12:40;29.77;;;21.33;;
63807;SDS011;49961;43.970;22.868;2022-12-18T06:13:41;28.37;;;20.27;;
63807;SDS011;49961;43.970;22.868;2022-12-18T06:14:41;28.70;;;20.63;;
63807;SDS011;49961;43.970;22.868;2022-12-18T06:15:41;28.97;;;20.70;;
63807;SDS011;49961;43.970;22.868;2022-12-18T06:16:42;31.63;;;21.87;;
63807;SDS011;49961;43.970;22.868;2022-12-18T06:17:42;31.77;;;21.57;;
63807;SDS011;49961;43.970;22.868;2022-12-18T06:18:43;28.53;;;19.37;;
63807;SDS011;49961;43.970;22.868;2022-12-18T06:19:43;27.77;;;20.33;;
63807;SDS011;49961;43.970;22.868;2022-12-18T06:20:43;31.00;;;21.40;;
63807;SDS011;49961;43.970;22.868;2022-12-18T06:21:44;28.70;;;20.03;;
63807;SDS011;49961;43.970;22.868;2022-12-18T06:22:44;28.27;;;19.87;;
63807;SDS011;49961;43.970;22.868;2022-12-18T06:23:45;28.77;;;20.63;;
63807;SDS011;49961;43.970;22.868;2022-12-18T06:24:45;31.33;;;20.23;;
63807;SDS011;49961;43.970;22.868;2022-12-18T06:25:46;28.57;;;20.93;;
63807;SDS011;49961;43.970;22.868;2022-12-18T06:26:46;30.07;;;21.13;;